Time;durP1;ratioP1;P1;durP2;ratioP2;P2;SDS_P1;SDS_P2;PMS_P1;PMS_P2;Temp;Humidity;BMP_temperature;BMP_pressure;BME280_temperature;BME280_humidity;BME280_pressure;Samples;Min_cycle;Max_cycle;Signal;HPM_P1;HPM_P2
2022/03/27 00:00:41;;;;;;;12.03;10.83;;;;;;;22.14;24.31;95958.91;6078973;28;103065;-53
2022/03/27 00:03:43;;;;;;;11.87;10.77;;;;;;;22.17;24.51;95960.22;6085423;28;104173;-53
2022/03/27 00:06:45;;;;;;;11.30;10.30;;;;;;;22.18;24.46;95957.31;6084683;28;104209;-53
2022/03/27 00:09:47;;;;;;;11.40;10.40;;;;;;;22.17;24.52;95953.00;6082646;28;104098;-53
2022/03/27 00:12:49;;;;;;;11.43;10.43;;;;;;;22.19;24.41;95958.09;6078955;28;104055;-54
2022/03/27 00:15:50;;;;;;;11.50;10.40;;;;;;;22.16;24.34;95956.75;6084441;28;103385;-54
2022/03/27 00:18:53;;;;;;;12.00;10.90;;;;;;;22.15;24.16;95955.19;6084374;28;104582;-54
2022/03/27 00:21:54;;;;;;;12.03;11.03;;;;;;;22.16;24.08;95954.09;6083480;28;103121;-54
2022/03/27 00:24:57;;;;;;;11.97;10.77;;;;;;;22.16;24.16;95950.63;6085634;28;103465;-53
2022/03/27 00:27:59;;;;;;;12.70;11.53;;;;;;;22.15;24.53;95949.06;6088088;28;103010;-54
2022/03/27 00:31:06;;;;;;;12.50;11.40;;;;;;;22.16;23.93;95943.44;6086817;28;103019;-53
2022/03/27 00:34:07;;;;;;;12.53;11.43;;;;;;;22.15;24.69;95943.72;6081744;28;103701;-54
2022/03/27 00:37:09;;;;;;;12.10;11.00;;;;;;;22.15;24.26;95941.06;6086838;28;103075;-54
2022/03/27 00:40:14;;;;;;;11.27;10.37;;;;;;;22.13;24.44;95929.88;6088867;28;103106;-54
2022/03/27 00:43:17;;;;;;;11.50;10.50;;;;;;;22.13;24.10;95929.88;6085120;28;103360;-53
2022/03/27 00:46:19;;;;;;;12.07;10.87;;;;;;;22.08;24.51;95920.09;6059193;28;103598;-53
2022/03/27 00:49:21;;;;;;;12.00;10.80;;;;;;;22.11;24.46;95920.31;6085147;28;103041;-54
2022/03/27 00:52:23;;;;;;;11.73;10.73;;;;;;;22.12;24.09;95921.09;6087539;28;104083;-53
2022/03/27 00:55:25;;;;;;;11.93;10.93;;;;;;;22.10;24.47;95915.25;6083923;28;103267;-54
2022/03/27 00:58:26;;;;;;;11.67;10.70;;;;;;;22.10;24.34;95921.38;6085954;28;103876;-54
2022/03/27 01:01:35;;;;;;;11.67;10.67;;;;;;;22.08;24.21;95912.88;6085462;28;102736;-54
2022/03/27 01:04:43;;;;;;;12.17;11.10;;;;;;;22.09;23.93;95919.00;6088428;28;103382;-54
2022/03/27 01:07:45;;;;;;;11.17;10.17;;;;;;;22.07;24.29;95916.63;6081375;28;103746;-54
2022/03/27 01:10:47;;;;;;;11.53;10.63;;;;;;;22.07;23.95;95908.63;6087882;28;103987;-54
2022/03/27 01:13:57;;;;;;;10.80;9.80;;;;;;;22.06;24.30;95903.59;6087292;28;103573;-53
2022/03/27 01:17:02;;;;;;;10.37;9.47;;;;;;;22.06;24.50;95900.91;6080392;28;103001;-54
2022/03/27 01:20:04;;;;;;;10.17;9.17;;;;;;;22.05;24.50;95904.66;6085853;28;103037;-54
2022/03/27 01:23:09;;;;;;;10.60;9.60;;;;;;;22.09;24.38;95911.00;6085763;28;104166;-53
2022/03/27 01:26:11;;;;;;;9.53;8.73;;;;;;;22.08;24.01;95918.22;6088170;28;103232;-54
2022/03/27 01:29:15;;;;;;;9.40;8.60;;;;;;;22.07;24.03;95905.16;6080791;28;105507;-54
2022/03/27 01:32:17;;;;;;;9.37;8.57;;;;;;;22.06;24.51;95909.69;6086015;28;104135;-54
2022/03/27 01:35:19;;;;;;;9.10;8.40;;;;;;;22.07;24.34;95911.28;6084509;28;103366;-53
2022/03/27 01:38:21;;;;;;;9.20;8.30;;;;;;;22.06;24.22;95908.91;6085423;28;104272;-59
2022/03/27 01:41:23;;;;;;;9.00;8.30;;;;;;;22.06;24.42;95914.25;6082485;28;104005;-54
2022/03/27 01:44:25;;;;;;;9.97;8.97;;;;;;;22.05;23.89;95910.78;6086398;28;103367;-54
2022/03/27 01:47:27;;;;;;;9.63;8.67;;;;;;;22.04;24.21;95911.88;6087266;28;104191;-54
2022/03/27 01:50:29;;;;;;;9.50;8.60;;;;;;;22.01;24.09;95903.63;6081276;28;103169;-54
2022/03/27 01:53:31;;;;;;;9.37;8.50;;;;;;;22.01;24.00;95899.09;6086316;28;103182;-54
2022/03/27 01:56:33;;;;;;;9.67;8.70;;;;;;;22.03;24.32;95904.16;6085406;28;104253;-54
2022/03/27 01:59:35;;;;;;;9.93;9.13;;;;;;;21.98;24.01;95907.66;6085412;28;103413;-54
2022/03/27 02:02:37;;;;;;;9.27;8.47;;;;;;;22.02;24.02;95907.91;6080513;28;104984;-54
2022/03/27 02:05:39;;;;;;;9.30;8.50;;;;;;;22.02;24.22;95914.03;6086488;28;103102;-55
2022/03/27 02:08:40;;;;;;;9.73;8.87;;;;;;;21.97;24.32;95900.72;6085895;28;102795;-54
2022/03/27 02:11:43;;;;;;;9.53;8.77;;;;;;;22.01;23.98;95912.44;6084497;28;103069;-53
2022/03/27 02:14:44;;;;;;;9.37;8.57;;;;;;;22.01;24.14;95916.94;6080424;28;104775;-54
2022/03/27 02:17:46;;;;;;;8.93;8.23;;;;;;;22.00;24.07;95912.69;6084845;28;102971;-54
2022/03/27 02:20:48;;;;;;;10.07;9.07;;;;;;;21.99;24.26;95919.91;6086281;28;103218;-54
2022/03/27 02:23:51;;;;;;;9.57;8.73;;;;;;;22.00;23.80;95918.03;6081502;28;103234;-54
2022/03/27 02:26:53;;;;;;;9.47;8.67;;;;;;;21.94;23.99;95917.28;6085248;28;104174;-54
2022/03/27 02:29:55;;;;;;;8.90;8.10;;;;;;;21.97;24.25;95914.06;6084306;28;103851;-54
2022/03/27 02:32:57;;;;;;;9.33;8.53;;;;;;;21.97;24.24;95922.06;6086455;28;103444;-53
2022/03/27 02:35:59;;;;;;;9.70;8.90;;;;;;;21.95;23.98;95921.53;6079521;28;103167;-54
2022/03/27 02:39:01;;;;;;;9.00;8.10;;;;;;;21.96;24.05;95920.47;6086321;28;103528;-54
2022/03/27 02:42:02;;;;;;;9.93;9.03;;;;;;;21.96;24.04;95930.34;6085402;28;103187;-54
2022/03/27 02:45:08;;;;;;;9.47;8.67;;;;;;;21.95;24.16;95934.88;6079122;28;103078;-53
2022/03/27 02:48:09;;;;;;;9.40;8.63;;;;;;;21.95;24.06;95934.88;6084892;28;103227;-54
2022/03/27 02:51:11;;;;;;;8.80;8.00;;;;;;;21.93;24.25;95931.69;6085102;28;103105;-54
2022/03/27 02:54:14;;;;;;;9.00;8.20;;;;;;;21.95;24.07;95934.06;6085984;28;103069;-54
2022/03/27 02:57:16;;;;;;;8.50;7.80;;;;;;;21.93;24.06;95939.69;6078714;28;104839;-54
2022/03/27 03:00:18;;;;;;;8.80;8.10;;;;;;;21.93;24.24;95937.03;6083711;28;103090;-54
2022/03/27 03:03:20;;;;;;;9.77;8.87;;;;;;;21.92;24.07;95937.31;6084497;28;103563;-53
2022/03/27 03:06:26;;;;;;;10.03;9.20;;;;;;;21.92;24.33;95943.44;6086675;28;103178;-54
2022/03/27 03:09:28;;;;;;;9.67;8.87;;;;;;;21.87;24.02;95943.50;6080748;28;102953;-54
2022/03/27 03:12:30;;;;;;;8.40;7.70;;;;;;;21.90;23.94;95950.13;6083866;28;103570;-54
2022/03/27 03:15:32;;;;;;;8.80;8.00;;;;;;;21.89;23.77;95945.88;6083205;28;104034;-54
2022/03/27 03:18:34;;;;;;;8.23;7.40;;;;;;;21.89;24.11;95941.34;6080392;28;103097;-54
2022/03/27 03:21:36;;;;;;;8.40;7.70;;;;;;;21.89;24.26;95946.66;6084617;28;103137;-53
2022/03/27 03:24:38;;;;;;;9.50;8.43;;;;;;;21.88;23.79;95947.75;6086533;28;103169;-54
2022/03/27 03:27:40;;;;;;;8.63;7.93;;;;;;;21.87;24.23;95940.81;6084733;28;103011;-54
2022/03/27 03:30:41;;;;;;;8.30;7.50;;;;;;;21.86;24.23;95941.13;6077893;28;105697;-53
2022/03/27 03:33:43;;;;;;;8.37;7.57;;;;;;;21.85;24.05;95943.00;6085263;28;103368;-54
2022/03/27 03:36:45;;;;;;;9.23;8.43;;;;;;;21.85;24.02;95942.19;6085924;28;103211;-54
2022/03/27 03:39:47;;;;;;;8.40;7.70;;;;;;;21.87;24.20;95943.50;6086384;28;103303;-54
2022/03/27 03:42:48;;;;;;;8.70;7.90;;;;;;;21.85;24.05;95943.00;6078136;28;104880;-54
2022/03/27 03:45:50;;;;;;;9.20;8.30;;;;;;;21.86;24.04;95949.09;6084854;28;103631;-54
2022/03/27 03:48:52;;;;;;;8.50;7.80;;;;;;;21.86;23.80;95949.09;6085437;28;102966;-55
2022/03/27 03:51:54;;;;;;;9.03;7.73;;;;;;;21.80;24.14;95943.78;6078692;28;103009;-54
2022/03/27 03:54:56;;;;;;;8.53;7.77;;;;;;;21.84;24.26;95949.34;6085201;28;104079;-54
2022/03/27 03:57:58;;;;;;;8.70;7.90;;;;;;;21.82;24.24;95951.50;6087475;28;103179;-54
2022/03/27 04:00:59;;;;;;;8.40;7.60;;;;;;;21.83;24.23;95953.09;6088839;28;104487;-54
2022/03/27 04:04:02;;;;;;;8.30;7.50;;;;;;;21.79;24.20;95954.72;6082643;28;103149;-56
2022/03/27 04:07:04;;;;;;;8.23;7.40;;;;;;;21.80;24.22;95959.75;6082543;28;102998;-57
2022/03/27 04:10:07;;;;;;;8.60;7.90;;;;;;;21.84;24.00;95965.34;6088458;28;103680;-55
2022/03/27 04:13:11;;;;;;;7.83;7.03;;;;;;;21.83;24.11;95960.31;6080412;28;103214;-57
2022/03/27 04:16:13;;;;;;;8.53;7.77;;;;;;;21.84;24.07;95968.00;6077062;28;103828;-56
2022/03/27 04:19:15;;;;;;;8.43;7.73;;;;;;;21.87;24.40;95974.69;6077725;28;103371;-55
2022/03/27 04:22:17;;;;;;;8.53;7.77;;;;;;;21.83;24.18;95963.75;6082321;28;103895;-56
2022/03/27 04:25:19;;;;;;;9.73;8.87;;;;;;;21.85;23.98;95974.97;6083422;28;103338;-55
2022/03/27 04:28:21;;;;;;;9.17;8.37;;;;;;;21.85;24.18;95974.16;6087139;28;103287;-56
2022/03/27 04:31:23;;;;;;;8.83;8.10;;;;;;;21.84;23.96;95980.53;6087946;28;103204;-55
2022/03/27 04:34:24;;;;;;;9.37;8.63;;;;;;;21.85;24.23;95982.94;6088298;28;103267;-55
2022/03/27 04:37:26;;;;;;;8.70;7.90;;;;;;;21.86;24.03;95983.75;6083220;28;104747;-55
2022/03/27 04:40:28;;;;;;;9.00;8.20;;;;;;;21.86;24.06;95989.06;6087843;28;103383;-56
2022/03/27 04:43:32;;;;;;;9.03;8.33;;;;;;;21.86;24.58;95995.19;6085707;28;103140;-54
2022/03/27 04:46:35;;;;;;;9.33;8.50;;;;;;;21.85;24.56;96000.81;6081990;28;104316;-55
2022/03/27 04:49:37;;;;;;;9.07;8.20;;;;;;;21.81;24.32;95995.19;6087707;28;103489;-56
2022/03/27 04:52:39;;;;;;;9.10;8.30;;;;;;;21.85;24.60;95998.94;6086421;28;104650;-54
2022/03/27 04:55:41;;;;;;;8.10;7.40;;;;;;;21.81;24.67;96000.53;6088539;28;103169;-54
2022/03/27 04:58:43;;;;;;;9.07;8.20;;;;;;;21.82;24.48;96002.13;6083103;28;103259;-55
2022/03/27 05:01:45;;;;;;;8.47;7.63;;;;;;;21.89;24.93;96023.94;6100963;28;102994;-54
2022/03/27 05:04:47;;;;;;;11.77;8.20;;;;;;;21.83;25.07;96011.72;6086127;28;104332;-55
2022/03/27 05:07:48;;;;;;;8.70;7.80;;;;;;;21.88;24.94;96016.22;6085534;28;104550;-55
2022/03/27 05:10:50;;;;;;;8.40;7.70;;;;;;;21.89;24.81;96031.94;6081969;28;103314;-56
2022/03/27 05:13:52;;;;;;;8.23;7.50;;;;;;;21.85;25.13;96025.59;6071952;28;103686;-56
2022/03/27 05:16:54;;;;;;;9.00;7.70;;;;;;;21.90;25.30;96027.41;6082014;28;104021;-56
2022/03/27 05:19:55;;;;;;;8.03;7.40;;;;;;;21.91;25.30;96032.44;6081165;28;104117;-56
2022/03/27 05:23:02;;;;;;;8.53;7.73;;;;;;;21.91;25.49;96034.31;6086642;28;103231;-54
2022/03/27 05:26:04;;;;;;;9.60;8.60;;;;;;;21.63;24.36;96043.84;6087482;28;103307;-53
2022/03/27 05:29:08;;;;;;;9.67;8.77;;;;;;;21.36;23.79;96034.44;6086495;28;103459;-54
2022/03/27 05:32:10;;;;;;;10.93;9.83;;;;;;;21.05;23.98;96038.34;6083049;28;102971;-52
2022/03/27 05:35:12;;;;;;;10.50;9.07;;;;;;;20.91;23.47;96033.59;6087691;28;103491;-53
2022/03/27 05:38:14;;;;;;;10.50;9.10;;;;;;;20.84;23.47;96042.94;6085845;28;102958;-52
2022/03/27 05:41:15;;;;;;;10.93;9.83;;;;;;;20.77;23.63;96037.09;6082242;28;103458;-54
2022/03/27 05:44:17;;;;;;;12.70;11.27;;;;;;;20.75;23.37;96032.06;6076438;28;103412;-53
2022/03/27 05:47:19;;;;;;;14.13;11.43;;;;;;;20.82;23.44;96040.53;6084011;28;103578;-53
2022/03/27 05:50:22;;;;;;;16.60;13.27;;;;;;;20.92;23.67;96045.81;6082960;28;105416;-53
2022/03/27 05:53:24;;;;;;;17.93;12.07;;;;;;;20.98;23.46;96041.25;6081915;28;103143;-53
2022/03/27 05:56:26;;;;;;;15.73;13.00;;;;;;;21.06;23.24;96042.59;6086345;28;103304;-53
2022/03/27 05:59:27;;;;;;;16.23;13.13;;;;;;;21.06;23.39;96040.72;6087131;28;103309;-53
2022/03/27 06:02:29;;;;;;;15.40;12.70;;;;;;;21.26;23.61;96044.34;6086467;28;103003;-55
2022/03/27 06:05:31;;;;;;;14.87;13.37;;;;;;;21.58;24.02;96052.66;6079769;28;104138;-54
2022/03/27 06:08:33;;;;;;;13.60;12.30;;;;;;;21.54;23.68;96040.19;6086555;28;103058;-54
2022/03/27 06:11:35;;;;;;;13.03;11.13;;;;;;;21.56;23.87;96046.03;6084646;28;104187;-55
2022/03/27 06:14:37;;;;;;;13.17;11.77;;;;;;;21.45;23.65;96053.28;6081951;28;103384;-55
2022/03/27 06:17:45;;;;;;;12.60;9.83;;;;;;;21.67;25.41;96055.50;6082270;28;103668;-54
2022/03/27 06:20:47;;;;;;;11.43;10.23;;;;;;;21.88;26.08;96034.88;6085966;28;103377;-53
2022/03/27 06:23:48;;;;;;;18.63;10.43;;;;;;;21.93;26.29;96048.94;6085736;28;103209;-53
2022/03/27 06:26:50;;;;;;;28.53;10.67;;;;;;;22.26;26.00;96052.66;6080254;28;103296;-53
2022/03/27 06:29:52;;;;;;;12.80;10.30;;;;;;;22.25;26.14;96045.72;6087194;28;104214;-54
2022/03/27 06:32:54;;;;;;;29.40;10.80;;;;;;;22.27;27.75;96050.78;6087041;28;102761;-54
2022/03/27 06:35:56;;;;;;;15.53;10.03;;;;;;;22.32;25.97;96042.72;6085726;28;103724;-53
2022/03/27 06:38:58;;;;;;;15.27;10.50;;;;;;;22.52;25.29;96047.88;6079648;28;103000;-53
2022/03/27 06:42:00;;;;;;;13.33;10.13;;;;;;;22.65;25.30;96057.84;6084682;28;104059;-54
2022/03/27 06:45:02;;;;;;;17.57;10.23;;;;;;;22.69;25.27;96052.78;6066562;28;103023;-54
2022/03/27 06:48:05;;;;;;;22.50;10.63;;;;;;;22.62;24.40;96054.97;6078865;28;103085;-53
2022/03/27 06:51:06;;;;;;;22.30;11.40;;;;;;;22.64;24.83;96066.94;6075110;28;104357;-54
2022/03/27 06:54:08;;;;;;;17.33;10.60;;;;;;;22.76;25.33;96065.75;6084338;28;103285;-54
2022/03/27 06:57:10;;;;;;;16.70;9.90;;;;;;;22.78;25.37;96064.38;6080576;28;103767;-54
2022/03/27 07:03:34;;;;;;;11.87;10.50;;;;;;;22.27;25.12;96061.44;6083415;28;103250;-54
2022/03/27 07:06:36;;;;;;;10.73;9.63;;;;;;;22.49;25.68;96059.06;6085408;28;104420;-53
2022/03/27 07:09:38;;;;;;;12.93;10.10;;;;;;;22.69;25.56;96071.44;6079648;28;102817;-57
2022/03/27 07:12:42;;;;;;;11.10;9.60;;;;;;;22.74;25.55;96073.25;6084287;28;103230;-53
2022/03/27 07:15:46;;;;;;;14.20;10.23;;;;;;;22.83;25.15;96072.34;6085290;28;103059;-54
2022/03/27 07:18:49;;;;;;;12.43;9.90;;;;;;;22.85;25.07;96070.19;6083832;28;103248;-54
2022/03/27 07:21:51;;;;;;;17.07;9.83;;;;;;;22.87;24.80;96057.34;6079357;28;103354;-54
2022/03/27 07:24:53;;;;;;;15.50;10.40;;;;;;;22.88;24.62;96064.28;6083610;28;103090;-54
2022/03/27 07:27:55;;;;;;;17.80;11.20;;;;;;;22.92;24.55;96061.84;6085190;28;103742;-54
2022/03/27 07:30:58;;;;;;;14.50;10.53;;;;;;;22.88;24.97;96055.47;6085110;28;103547;-53
2022/03/27 07:34:01;;;;;;;16.20;10.83;;;;;;;22.95;25.89;96066.59;6080108;28;104621;-54
2022/03/27 07:37:03;;;;;;;19.57;11.57;;;;;;;22.94;26.64;96059.66;6096837;28;104002;-55
2022/03/27 07:40:08;;;;;;;16.50;11.23;;;;;;;22.99;26.45;96055.06;6076197;28;103698;-55
2022/03/27 07:46:20;;;;;;;13.30;11.00;;;;;;;23.08;26.25;96052.56;6849096;23;105333;-59
2022/03/27 07:49:23;;;;;;;12.23;10.30;;;;;;;23.13;26.95;96052.47;6124868;28;104524;-57
2022/03/27 07:52:27;;;;;;;15.13;11.30;;;;;;;23.14;26.98;96042.59;6126999;28;104169;-57
2022/03/27 07:55:29;;;;;;;14.70;11.03;;;;;;;23.11;26.56;96045.84;6127301;28;104020;-56
2022/03/27 07:58:30;;;;;;;13.67;10.50;;;;;;;23.20;26.28;96050.25;6132516;28;103450;-56
2022/03/27 08:01:32;;;;;;;11.60;10.23;;;;;;;23.24;26.39;96040.59;6133360;28;104177;-56
2022/03/27 08:04:34;;;;;;;14.30;11.07;;;;;;;23.27;26.24;96040.00;6125986;28;103623;-60
2022/03/27 08:07:37;;;;;;;11.70;10.30;;;;;;;23.33;26.38;96026.59;6128801;28;103482;-58
2022/03/27 08:10:38;;;;;;;11.87;10.67;;;;;;;23.37;26.20;96032.97;6132323;28;102892;-59
2022/03/27 08:13:40;;;;;;;15.07;11.20;;;;;;;23.40;26.28;96027.03;6134787;28;103073;-56
2022/03/27 08:16:42;;;;;;;18.17;11.63;;;;;;;23.40;26.68;96019.03;6130059;28;103691;-57
2022/03/27 08:19:45;;;;;;;15.10;12.60;;;;;;;23.43;26.59;96027.25;6135054;28;103385;-56
2022/03/27 08:32:48;;;;;;;13.07;11.00;;;;;;;23.53;26.88;95999.59;6875297;22;104972;-56
2022/03/27 08:35:50;;;;;;;14.77;12.33;;;;;;;23.51;27.06;95993.72;6109800;28;103976;-55
2022/03/27 08:38:51;;;;;;;14.57;11.70;;;;;;;23.49;27.20;96004.72;6111983;28;103205;-55
2022/03/27 08:41:54;;;;;;;14.07;12.67;;;;;;;23.50;27.00;95997.50;6126340;28;104258;-54
2022/03/27 08:44:56;;;;;;;17.27;10.80;;;;;;;23.47;26.80;95995.41;6115653;28;104194;-55
2022/03/27 08:47:58;;;;;;;12.57;11.33;;;;;;;23.41;26.71;95992.03;6112694;28;103345;-62
2022/03/27 08:51:20;;;;;;;13.83;11.50;;;;;;;23.50;26.73;95995.59;6119525;23;104058;-53
2022/03/27 08:54:29;;;;;;;14.07;11.13;;;;;;;23.52;26.86;95992.66;6082449;28;104055;-50
2022/03/27 09:01:58;;;;;;;64.23;32.33;;;;;;;23.53;27.47;95978.22;6066796;28;103068;-51
2022/03/27 09:05:03;;;;;;;61.20;34.00;;;;;;;23.57;28.25;96003.28;6082919;28;103106;-58
2022/03/27 09:08:09;;;;;;;68.53;37.77;;;;;;;23.56;28.35;95991.00;6088063;28;103147;-57
2022/03/27 09:11:16;;;;;;;62.90;36.60;;;;;;;23.53;28.75;95989.72;6086010;28;104229;-56
2022/03/27 09:14:18;;;;;;;71.10;35.77;;;;;;;23.52;28.98;95992.66;6087119;28;103649;-57
2022/03/27 09:17:20;;;;;;;58.47;32.87;;;;;;;23.45;28.82;95974.31;6083832;28;103098;-59
2022/03/27 09:20:33;;;;;;;52.80;30.13;;;;;;;23.52;29.04;95976.63;6087058;28;103210;-59
2022/03/27 09:23:38;;;;;;;45.40;27.47;;;;;;;23.51;29.21;95970.47;6087338;28;105021;-58
2022/03/27 09:26:58;;;;;;;53.27;27.33;;;;;;;23.60;30.44;95968.75;6075192;28;103336;-58
2022/03/27 09:30:18;;;;;;;31.30;27.40;;;;;;;23.65;30.00;95959.03;6084983;23;104413;-67
2022/03/27 09:33:53;;;;;;;32.10;28.90;;;;;;;23.66;30.32;95966.75;6074913;28;103911;-68
2022/03/27 09:36:55;;;;;;;36.23;32.80;;;;;;;23.69;29.96;95963.53;6066691;28;103956;-68
2022/03/27 09:39:57;;;;;;;33.00;29.60;;;;;;;23.67;28.77;95963.00;6066708;23;103978;-67
2022/03/27 09:43:11;;;;;;;29.23;26.23;;;;;;;23.54;27.58;95958.44;6051346;28;103179;-69
2022/03/27 09:46:13;;;;;;;27.50;24.40;;;;;;;23.49;26.05;95958.50;6081829;28;103209;-69
2022/03/27 09:49:35;;;;;;;26.10;23.67;;;;;;;23.51;25.72;95954.44;6093180;28;103077;-69
2022/03/27 09:52:40;;;;;;;27.13;24.23;;;;;;;23.44;25.07;95963.94;6086441;28;103903;-70
2022/03/27 09:55:42;;;;;;;25.90;23.40;;;;;;;23.45;24.75;95950.28;6070529;28;102954;-71
2022/03/27 09:58:46;;;;;;;28.70;25.80;;;;;;;23.46;24.89;95957.22;6082152;28;104110;-71
2022/03/27 10:01:48;;;;;;;32.80;29.80;;;;;;;23.44;25.31;95948.69;6089401;28;103330;-70
2022/03/27 10:05:00;;;;;;;34.50;31.30;;;;;;;23.44;25.57;95947.91;6080868;28;103194;-70
2022/03/27 10:08:03;;;;;;;41.93;38.13;;;;;;;23.36;25.37;95929.88;6098294;28;103443;-71
2022/03/27 10:11:05;;;;;;;46.00;41.70;;;;;;;23.43;25.21;95930.28;6083400;28;103282;-72
2022/03/27 10:14:08;;;;;;;44.13;40.13;;;;;;;23.40;25.26;95931.69;6089122;28;103916;-71
2022/03/27 10:17:11;;;;;;;41.63;38.10;;;;;;;23.39;25.15;95923.97;6094468;28;103195;-70
2022/03/27 10:20:18;;;;;;;44.70;40.53;;;;;;;23.39;25.21;95915.94;6102957;28;102988;-69
2022/03/27 10:23:26;;;;;;;45.60;41.60;;;;;;;23.38;25.61;95911.69;6080082;28;104028;-68
2022/03/27 10:26:30;;;;;;;48.77;44.17;;;;;;;23.37;25.33;95908.22;6091797;28;102955;-68
2022/03/27 10:29:33;;;;;;;49.03;44.50;;;;;;;23.37;25.25;95907.44;6087720;28;105455;-67
2022/03/27 10:32:35;;;;;;;47.70;43.60;;;;;;;23.39;25.60;95911.41;6081533;28;102863;-70
2022/03/27 10:35:44;;;;;;;46.33;42.50;;;;;;;23.47;25.76;95905.38;6097045;28;105869;-69
2022/03/27 10:39:20;;;;;;;41.87;38.27;;;;;;;23.44;26.86;95913.19;6094409;28;104139;-68
2022/03/27 10:42:46;;;;;;;39.67;35.97;;;;;;;23.50;27.72;95906.66;6070270;28;103594;-68
2022/03/27 10:46:27;;;;;;;36.47;33.00;;;;;;;23.51;28.22;95900.22;6079228;28;102956;-79
2022/03/27 10:49:29;;;;;;;32.13;29.23;;;;;;;23.52;27.05;95894.63;6012742;28;103438;-81
2022/03/27 10:52:42;;;;;;;30.70;27.87;;;;;;;23.53;26.99;95898.06;6092279;28;106273;-82
2022/03/27 10:55:47;;;;;;;29.70;27.07;;;;;;;23.59;27.38;95899.56;6110211;28;103305;-80
2022/03/27 10:59:07;;;;;;;29.00;26.50;;;;;;;23.56;26.78;95898.28;6098819;28;105354;-81
2022/03/27 11:02:09;;;;;;;27.60;25.10;;;;;;;23.56;27.00;95892.16;6088969;28;103446;-81
2022/03/27 11:05:30;;;;;;;28.07;25.30;;;;;;;23.56;27.00;95882.25;6126934;28;103159;-80
2022/03/27 11:08:32;;;;;;;28.73;26.23;;;;;;;23.57;26.59;95880.38;6086028;28;103392;-82
2022/03/27 11:11:33;;;;;;;31.53;28.83;;;;;;;23.60;27.07;95877.09;6086336;28;105376;-84
2022/03/27 11:14:58;;;;;;;33.00;30.10;;;;;;;23.59;26.48;95860.28;6082912;28;103261;-86
2022/03/27 11:18:10;;;;;;;40.33;36.83;;;;;;;23.57;26.77;95867.81;6087573;28;105362;-83
2022/03/27 11:21:14;;;;;;;40.97;37.57;;;;;;;23.53;27.07;95861.47;6117079;28;105329;-83
2022/03/27 11:24:18;;;;;;;42.13;38.30;;;;;;;23.50;27.08;95867.38;6098963;28;105174;-84
2022/03/27 11:27:52;;;;;;;42.60;38.80;;;;;;;23.47;26.71;95861.84;6084718;28;105361;-83
2022/03/27 11:30:54;;;;;;;45.97;41.87;;;;;;;23.55;26.55;95863.84;6103057;28;103526;-81
2022/03/27 11:34:08;;;;;;;44.00;40.20;;;;;;;23.53;26.85;95856.13;6087957;28;103193;-81
2022/03/27 11:37:23;;;;;;;46.10;41.80;;;;;;;23.48;26.36;95860.75;6081962;28;103472;-80
2022/03/27 11:40:43;;;;;;;48.00;43.87;;;;;;;23.43;26.47;95853.63;6077888;28;102973;-84
2022/03/27 11:43:45;;;;;;;45.43;41.57;;;;;;;23.44;26.39;95851.75;6081854;28;103211;-81
2022/03/27 11:46:52;;;;;;;44.20;40.40;;;;;;;23.37;26.58;95854.00;6090588;28;104343;-83
2022/03/27 11:49:54;;;;;;;43.00;39.10;;;;;;;23.32;26.35;95832.72;6097932;28;105149;-80
2022/03/27 11:52:57;;;;;;;42.70;38.97;;;;;;;23.34;26.27;95842.00;6081888;28;103220;-82
2022/03/27 11:56:11;;;;;;;40.37;36.83;;;;;;;23.39;25.96;95833.13;6077004;28;103271;-80
2022/03/27 11:59:14;;;;;;;40.87;37.37;;;;;;;23.30;26.13;95833.00;6104074;28;105318;-81
2022/03/27 12:02:18;;;;;;;40.03;36.33;;;;;;;23.31;25.87;95831.94;6083436;28;103055;-82
2022/03/27 12:05:20;;;;;;;35.97;32.70;;;;;;;23.27;26.35;95828.22;6105620;28;105249;-81
2022/03/27 12:08:32;;;;;;;34.80;31.60;;;;;;;23.26;25.68;95819.44;6122137;28;103620;-83
2022/03/27 12:11:34;;;;;;;36.17;32.97;;;;;;;23.27;26.10;95826.34;6102576;28;102670;-84
2022/03/27 12:14:52;;;;;;;34.93;31.70;;;;;;;23.26;25.90;95824.78;6103903;28;104789;-80
2022/03/27 12:17:54;;;;;;;32.97;30.10;;;;;;;23.25;25.87;95814.38;6084032;28;104463;-82
2022/03/27 12:21:00;;;;;;;32.80;30.00;;;;;;;23.00;25.73;95788.91;6098778;28;103211;-82
2022/03/27 12:24:05;;;;;;;30.97;28.37;;;;;;;23.18;26.10;95806.75;6104567;28;105293;-81
2022/03/27 12:30:44;;;;;;;27.00;24.57;;;;;;;23.01;25.87;95779.81;6120207;28;104072;-81
2022/03/27 12:33:48;;;;;;;25.80;23.40;;;;;;;23.24;26.32;95816.25;6099978;28;105424;-80
2022/03/27 12:37:14;;;;;;;24.17;21.97;;;;;;;23.18;25.40;95792.59;6098045;28;103772;-80
2022/03/27 12:40:16;;;;;;;25.77;23.40;;;;;;;23.16;25.97;95803.56;6113150;28;104509;-81
2022/03/27 12:43:17;;;;;;;24.30;21.80;;;;;;;23.29;25.80;95816.19;6108749;28;102711;-80
2022/03/27 12:46:22;;;;;;;23.77;21.77;;;;;;;23.25;25.72;95817.84;6100060;28;103469;-85
2022/03/27 12:49:23;;;;;;;23.77;21.27;;;;;;;23.22;25.73;95796.28;6109472;28;103854;-81
2022/03/27 12:52:25;;;;;;;20.53;18.73;;;;;;;23.05;25.42;95782.72;6115523;28;103584;-81
2022/03/27 12:55:40;;;;;;;21.93;19.97;;;;;;;23.05;25.96;95786.16;6090115;28;103018;-81
2022/03/27 12:58:43;;;;;;;21.40;19.60;;;;;;;23.20;25.69;95803.81;6063787;23;104174;-82
2022/03/27 13:01:44;;;;;;;20.03;18.33;;;;;;;23.17;25.52;95799.81;6054435;28;102697;-79
2022/03/27 13:05:00;;;;;;;18.43;16.93;;;;;;;23.15;25.25;95799.31;6030970;28;103450;-81
2022/03/27 13:08:02;;;;;;;18.73;17.00;;;;;;;23.14;25.30;95805.75;6025929;28;105040;-82
2022/03/27 13:11:05;;;;;;;17.30;15.80;;;;;;;23.19;25.18;95807.56;6053756;28;103338;-82
2022/03/27 13:14:08;;;;;;;16.40;14.77;;;;;;;23.17;25.32;95801.69;6048536;28;103696;-83
2022/03/27 13:17:14;;;;;;;14.40;13.13;;;;;;;23.12;25.05;95801.78;6050870;28;106785;-84
2022/03/27 13:20:28;;;;;;;15.43;14.03;;;;;;;23.10;25.11;95787.94;6035355;28;102818;-82
2022/03/27 13:23:33;;;;;;;13.50;12.30;;;;;;;23.09;25.19;95792.50;6020854;29;105193;-83
2022/03/27 13:26:36;;;;;;;14.23;12.83;;;;;;;23.19;25.26;95792.34;6019111;28;103017;-83
2022/03/27 13:29:38;;;;;;;13.50;12.30;;;;;;;23.19;25.17;95788.88;6022270;28;104144;-81
2022/03/27 13:32:40;;;;;;;18.60;13.60;;;;;;;23.07;24.75;95770.66;6038957;28;105629;-84
2022/03/27 13:35:46;;;;;;;12.93;11.67;;;;;;;23.16;25.30;95778.75;6036076;28;103232;-83
2022/03/27 13:38:48;;;;;;;12.00;11.00;;;;;;;23.20;25.18;95783.22;6027979;29;107653;-82
2022/03/27 13:45:10;;;;;;;12.47;11.33;;;;;;;23.18;25.19;95784.59;6030527;28;105246;-84
2022/03/27 13:48:12;;;;;;;13.70;11.67;;;;;;;22.97;25.38;95738.78;6025406;29;104898;-80
2022/03/27 13:51:14;;;;;;;13.30;10.07;;;;;;;23.18;25.68;95784.59;6026128;28;104372;-78
2022/03/27 13:54:17;;;;;;;13.60;12.30;;;;;;;23.13;24.88;95793.47;6004210;28;103890;-79
2022/03/27 13:57:19;;;;;;;11.90;10.80;;;;;;;23.10;25.74;95772.72;6034418;28;103390;-80
2022/03/27 14:00:21;;;;;;;11.77;10.30;;;;;;;23.16;25.76;95795.56;6049383;28;102959;-79
2022/03/27 14:03:24;;;;;;;12.00;10.90;;;;;;;23.12;26.78;95785.78;6032116;28;103352;-80
2022/03/27 14:06:29;;;;;;;11.53;9.97;;;;;;;23.13;27.78;95793.47;6026263;29;102948;-79
2022/03/27 14:09:31;;;;;;;10.23;9.23;;;;;;;23.16;27.72;95782.22;6026226;29;104231;-79
2022/03/27 14:12:33;;;;;;;11.13;9.97;;;;;;;23.16;28.92;95782.22;6026969;28;102938;-79
2022/03/27 14:15:38;;;;;;;11.17;9.30;;;;;;;23.21;30.54;95779.47;6020675;28;103107;-79
2022/03/27 14:18:41;;;;;;;10.07;9.10;;;;;;;23.18;31.77;95774.69;6026061;29;103022;-78
2022/03/27 14:21:43;;;;;;;9.73;8.83;;;;;;;23.20;32.47;95774.44;6025020;29;103692;-76
2022/03/27 14:24:48;;;;;;;9.27;8.30;;;;;;;23.28;33.41;95782.53;6019995;28;102656;-78
2022/03/27 14:27:50;;;;;;;9.80;8.70;;;;;;;23.28;33.57;95779.88;6026598;29;103972;-80
2022/03/27 14:30:52;;;;;;;10.03;8.40;;;;;;;23.22;33.43;95767.69;6021251;28;103095;-78